UCT Elwood — V7HW9 — position and weather

sailwx.info

Track history (hours):
 
Tides and Currents Weather Stations Pressure Air Temp Water Temp Dewpoint Dewpoint Depression Visibility Wind Speed Wind Dir Waves Ship Positions

UCT Elwood

Last reported at 2017-Dec-08 14:44 UTC. Time now 2017-Dec-15 04:25 UTC.
Position S 26°10' E 154°11'.

Length 198 m; draft 10.2 m.

Type: Cargo ship. MMSI: 538006163.

Date/timePositionNaut miles runAvg speedWind from/ knotsBaromVisibWave heightAir tempDewpointWater temp
2017-Dec-08 14:44S 26°10' E 154°11'6412.9
2017-Dec-08 09:48S 27°13' E 154°14'412.2
2017-Dec-08 09:30S 27°17' E 154°14'612.0
2017-Dec-08 09:00S 27°23' E 154°14'811.7
2017-Dec-08 08:19S 27°31' E 154°14'411.5
2017-Dec-08 08:00S 27°34' E 154°14'611.9
2017-Dec-08 07:29S 27°41' E 154°15'612.0
2017-Dec-08 07:00S 27°46' E 154°15'611.8
2017-Dec-08 06:30S 27°52' E 154°15'611.5
2017-Dec-08 06:00S 27°58' E 154°15'611.4
2017-Dec-08 05:30S 28°04' E 154°16'611.1
2017-Dec-08 05:00S 28°09' E 154°16'510.8
2017-Dec-08 04:30S 28°15' E 154°16'710.4
2017-Dec-08 03:48S 28°22' E 154°17'510.7
2017-Dec-08 03:22S 28°26' E 154°17'511.4
2017-Dec-08 02:55S 28°32' E 154°17'512.2
2017-Dec-08 02:30S 28°37' E 154°17'612.8
2017-Dec-08 02:00S 28°43' E 154°17'713.1
2017-Dec-08 01:30S 28°50' E 154°15'713.1
2017-Dec-08 01:00S 28°56' E 154°14'713.1
2017-Dec-08 00:30S 29°02' E 154°13'712.9
2017-Dec-08 00:00S 29°09' E 154°12'712.7
2017-Dec-07 23:29S 29°15' E 154°11'1613.0
2017-Dec-07 22:17S 29°31' E 154°08'413.2
2017-Dec-07 21:57S 29°35' E 154°07'613.0
2017-Dec-07 21:28S 29°41' E 154°06'612.8
2017-Dec-07 21:00S 29°47' E 154°05'612.5
2017-Dec-07 20:30S 29°53' E 154°04'612.3
2017-Dec-07 20:01S 29°59' E 154°03'612.2
2017-Dec-07 19:31S 30°05' E 154°01'612.0
2017-Dec-07 19:00S 30°11' E 154°00'612.0
2017-Dec-07 18:31S 30°17' E 153°59'1611.8
2017-Dec-07 17:09S 30°33' E 153°57'211.6
2017-Dec-07 17:00S 30°35' E 153°56'611.5
2017-Dec-07 16:27S 30°41' E 153°55'511.4
2017-Dec-07 16:00S 30°46' E 153°54'1011.3
2017-Dec-07 15:05S 30°56' E 153°52'411.0
2017-Dec-07 14:46S 30°60' E 153°51'1610.8
2017-Dec-07 13:17S 31°14' E 153°44'310.2
2017-Dec-07 13:00S 31°17' E 153°43'3910.0
2017-Dec-07 09:07S 31°53' E 153°25'110.1
2017-Dec-07 09:00S 31°54' E 153°24'8 9.6
2017-Dec-07 08:11S 32°01' E 153°21'2 9.2
2017-Dec-07 07:57S 32°03' E 153°20'4 9.1
2017-Dec-07 07:30S 32°07' E 153°18'611.8
2017-Dec-07 07:00S 32°13' E 153°16'612.4
2017-Dec-07 06:30S 32°18' E 153°13'612.1
2017-Dec-07 06:00S 32°24' E 153°10'612.1
2017-Dec-07 05:31S 32°30' E 153°07'611.9
2017-Dec-07 05:01S 32°35' E 153°04'611.5
2017-Dec-07 04:31S 32°40' E 153°01'611.6
2017-Dec-07 04:01S 32°45' E 152°58'611.6
2017-Dec-07 03:31S 32°51' E 152°56'611.6
2017-Dec-07 03:01S 32°56' E 152°54'611.5
2017-Dec-07 02:30S 33°02' E 152°51'611.5
2017-Dec-07 02:01S 33°07' E 152°49'611.7
2017-Dec-07 01:30S 33°13' E 152°46'611.6
2017-Dec-07 01:00S 33°18' E 152°43'612.2
2017-Dec-07 00:30S 33°23' E 152°40'612.3
2017-Dec-07 00:00S 33°29' E 152°38'612.7
2017-Dec-06 23:31S 33°35' E 152°35'612.9
2017-Dec-06 23:00S 33°41' E 152°32'612.5
2017-Dec-06 22:30S 33°47' E 152°29'612.5
2017-Dec-06 21:59S 33°52' E 152°26'  
Track history (hours):
 
Tides and Currents Weather Stations Pressure Air Temp Water Temp Dewpoint Dewpoint Depression Visibility Wind Speed Wind Dir Waves Ship Positions

UCT Elwood

Last reported at 2017-Dec-08 14:44 UTC. Time now 2017-Dec-15 04:25 UTC.
Position S 26°10' E 154°11'.

Length 198 m; draft 10.2 m.

Type: Cargo ship. MMSI: 538006163.

Date/timePositionNaut miles runAvg speedWind from/ knotsBaromVisibWave heightAir tempDewpointWater temp
2017-Dec-08 14:44S 26°10' E 154°11'6412.9
2017-Dec-08 09:48S 27°13' E 154°14'412.2
2017-Dec-08 09:30S 27°17' E 154°14'612.0
2017-Dec-08 09:00S 27°23' E 154°14'811.7
2017-Dec-08 08:19S 27°31' E 154°14'411.5
2017-Dec-08 08:00S 27°34' E 154°14'611.9
2017-Dec-08 07:29S 27°41' E 154°15'612.0
2017-Dec-08 07:00S 27°46' E 154°15'611.8
2017-Dec-08 06:30S 27°52' E 154°15'611.5
2017-Dec-08 06:00S 27°58' E 154°15'611.4
2017-Dec-08 05:30S 28°04' E 154°16'611.1
2017-Dec-08 05:00S 28°09' E 154°16'510.8
2017-Dec-08 04:30S 28°15' E 154°16'710.4
2017-Dec-08 03:48S 28°22' E 154°17'510.7
2017-Dec-08 03:22S 28°26' E 154°17'511.4
2017-Dec-08 02:55S 28°32' E 154°17'512.2
2017-Dec-08 02:30S 28°37' E 154°17'612.8
2017-Dec-08 02:00S 28°43' E 154°17'713.1
2017-Dec-08 01:30S 28°50' E 154°15'713.1
2017-Dec-08 01:00S 28°56' E 154°14'713.1
2017-Dec-08 00:30S 29°02' E 154°13'712.9
2017-Dec-08 00:00S 29°09' E 154°12'712.7
2017-Dec-07 23:29S 29°15' E 154°11'1613.0
2017-Dec-07 22:17S 29°31' E 154°08'413.2
2017-Dec-07 21:57S 29°35' E 154°07'613.0
2017-Dec-07 21:28S 29°41' E 154°06'612.8
2017-Dec-07 21:00S 29°47' E 154°05'612.5
2017-Dec-07 20:30S 29°53' E 154°04'612.3
2017-Dec-07 20:01S 29°59' E 154°03'612.2
2017-Dec-07 19:31S 30°05' E 154°01'612.0
2017-Dec-07 19:00S 30°11' E 154°00'612.0
2017-Dec-07 18:31S 30°17' E 153°59'1611.8
2017-Dec-07 17:09S 30°33' E 153°57'211.6
2017-Dec-07 17:00S 30°35' E 153°56'611.5
2017-Dec-07 16:27S 30°41' E 153°55'511.4
2017-Dec-07 16:00S 30°46' E 153°54'1011.3
2017-Dec-07 15:05S 30°56' E 153°52'411.0
2017-Dec-07 14:46S 30°60' E 153°51'1610.8
2017-Dec-07 13:17S 31°14' E 153°44'310.2
2017-Dec-07 13:00S 31°17' E 153°43'3910.0
2017-Dec-07 09:07S 31°53' E 153°25'110.1
2017-Dec-07 09:00S 31°54' E 153°24'8 9.6
2017-Dec-07 08:11S 32°01' E 153°21'2 9.2
2017-Dec-07 07:57S 32°03' E 153°20'4 9.1
2017-Dec-07 07:30S 32°07' E 153°18'611.8
2017-Dec-07 07:00S 32°13' E 153°16'612.4
2017-Dec-07 06:30S 32°18' E 153°13'612.1
2017-Dec-07 06:00S 32°24' E 153°10'612.1
2017-Dec-07 05:31S 32°30' E 153°07'611.9
2017-Dec-07 05:01S 32°35' E 153°04'611.5
2017-Dec-07 04:31S 32°40' E 153°01'611.6
2017-Dec-07 04:01S 32°45' E 152°58'611.6
2017-Dec-07 03:31S 32°51' E 152°56'611.6
2017-Dec-07 03:01S 32°56' E 152°54'611.5
2017-Dec-07 02:30S 33°02' E 152°51'611.5
2017-Dec-07 02:01S 33°07' E 152°49'611.7
2017-Dec-07 01:30S 33°13' E 152°46'611.6
2017-Dec-07 01:00S 33°18' E 152°43'612.2
2017-Dec-07 00:30S 33°23' E 152°40'612.3
2017-Dec-07 00:00S 33°29' E 152°38'612.7
2017-Dec-06 23:31S 33°35' E 152°35'612.9
2017-Dec-06 23:00S 33°41' E 152°32'612.5
2017-Dec-06 22:30S 33°47' E 152°29'612.5
2017-Dec-06 21:59S 33°52' E 152°26'  

Dump ship's entire track history